sensor_id;sensor_type;location;lat;lon;timestamp;temperature;humidity
15156;DHT22;7678;50.058;8.306;2023-08-06T00:02:02;17.20;99.90
15156;DHT22;7678;50.058;8.306;2023-08-06T00:04:30;17.10;99.90
15156;DHT22;7678;50.058;8.306;2023-08-06T00:07:00;17.20;99.90
15156;DHT22;7678;50.058;8.306;2023-08-06T00:09:28;17.20;99.90
15156;DHT22;7678;50.058;8.306;2023-08-06T00:11:56;17.20;99.90
15156;DHT22;7678;50.058;8.306;2023-08-06T00:14:24;17.10;99.90
15156;DHT22;7678;50.058;8.306;2023-08-06T00:16:52;17.10;99.90
15156;DHT22;7678;50.058;8.306;2023-08-06T00:19:21;17.00;99.90
15156;DHT22;7678;50.058;8.306;2023-08-06T00:21:49;17.10;99.90
15156;DHT22;7678;50.058;8.306;2023-08-06T00:24:19;17.10;99.90
15156;DHT22;7678;50.058;8.306;2023-08-06T00:26:47;17.00;99.90
15156;DHT22;7678;50.058;8.306;2023-08-06T00:29:17;17.00;99.90
15156;DHT22;7678;50.058;8.306;2023-08-06T00:31:45;17.00;99.90
15156;DHT22;7678;50.058;8.306;2023-08-06T00:34:13;16.90;99.90
15156;DHT22;7678;50.058;8.306;2023-08-06T00:36:41;16.90;99.90
15156;DHT22;7678;50.058;8.306;2023-08-06T00:39:09;17.00;99.90
15156;DHT22;7678;50.058;8.306;2023-08-06T00:41:39;16.90;99.90
15156;DHT22;7678;50.058;8.306;2023-08-06T00:44:07;16.70;99.90
15156;DHT22;7678;50.058;8.306;2023-08-06T00:46:35;16.80;99.90
15156;DHT22;7678;50.058;8.306;2023-08-06T00:49:03;16.90;99.90
15156;DHT22;7678;50.058;8.306;2023-08-06T00:51:32;16.70;99.90
15156;DHT22;7678;50.058;8.306;2023-08-06T00:54:02;16.70;99.90
15156;DHT22;7678;50.058;8.306;2023-08-06T00:56:30;16.80;99.90
15156;DHT22;7678;50.058;8.306;2023-08-06T00:59:00;16.80;99.90
15156;DHT22;7678;50.058;8.306;2023-08-06T01:01:29;16.80;99.90
15156;DHT22;7678;50.058;8.306;2023-08-06T01:03:57;16.90;99.90
15156;DHT22;7678;50.058;8.306;2023-08-06T01:06:37;16.80;99.90
15156;DHT22;7678;50.058;8.306;2023-08-06T01:09:15;17.00;99.90
15156;DHT22;7678;50.058;8.306;2023-08-06T01:12:05;16.90;99.90
15156;DHT22;7678;50.058;8.306;2023-08-06T01:14:45;16.90;99.90
15156;DHT22;7678;50.058;8.306;2023-08-06T01:17:16;16.90;99.90
15156;DHT22;7678;50.058;8.306;2023-08-06T01:19:44;16.80;99.90
15156;DHT22;7678;50.058;8.306;2023-08-06T01:22:14;16.80;99.90
15156;DHT22;7678;50.058;8.306;2023-08-06T01:24:48;16.80;99.90
15156;DHT22;7678;50.058;8.306;2023-08-06T01:27:25;16.90;99.90
15156;DHT22;7678;50.058;8.306;2023-08-06T01:30:01;16.80;99.90
15156;DHT22;7678;50.058;8.306;2023-08-06T01:32:33;16.80;99.90
15156;DHT22;7678;50.058;8.306;2023-08-06T01:35:06;16.70;99.90
15156;DHT22;7678;50.058;8.306;2023-08-06T01:37:36;16.60;99.90
15156;DHT22;7678;50.058;8.306;2023-08-06T01:40:07;16.60;99.90
15156;DHT22;7678;50.058;8.306;2023-08-06T01:42:37;16.60;99.90
15156;DHT22;7678;50.058;8.306;2023-08-06T01:45:07;16.60;99.90
15156;DHT22;7678;50.058;8.306;2023-08-06T01:47:36;16.60;99.90
15156;DHT22;7678;50.058;8.306;2023-08-06T01:50:04;16.40;99.90
15156;DHT22;7678;50.058;8.306;2023-08-06T01:52:33;16.60;99.90
15156;DHT22;7678;50.058;8.306;2023-08-06T01:55:02;16.50;99.90
15156;DHT22;7678;50.058;8.306;2023-08-06T01:57:31;16.40;99.90
15156;DHT22;7678;50.058;8.306;2023-08-06T01:59:59;16.50;99.90
15156;DHT22;7678;50.058;8.306;2023-08-06T02:02:27;16.50;99.90
15156;DHT22;7678;50.058;8.306;2023-08-06T02:04:58;16.40;99.90
15156;DHT22;7678;50.058;8.306;2023-08-06T02:07:26;16.40;99.90
15156;DHT22;7678;50.058;8.306;2023-08-06T02:09:54;16.50;99.90
15156;DHT22;7678;50.058;8.306;2023-08-06T02:12:23;16.40;99.90
15156;DHT22;7678;50.058;8.306;2023-08-06T02:14:51;16.30;99.90
15156;DHT22;7678;50.058;8.306;2023-08-06T02:17:21;16.30;99.90
15156;DHT22;7678;50.058;8.306;2023-08-06T02:19:49;16.20;99.90
15156;DHT22;7678;50.058;8.306;2023-08-06T02:22:17;16.20;99.90
15156;DHT22;7678;50.058;8.306;2023-08-06T02:24:48;16.20;99.90
15156;DHT22;7678;50.058;8.306;2023-08-06T02:27:17;16.20;99.90
15156;DHT22;7678;50.058;8.306;2023-08-06T02:29:46;16.10;99.90
15156;DHT22;7678;50.058;8.306;2023-08-06T02:32:14;16.10;99.90
15156;DHT22;7678;50.058;8.306;2023-08-06T02:34:42;16.30;99.90
15156;DHT22;7678;50.058;8.306;2023-08-06T02:37:10;16.30;99.90
15156;DHT22;7678;50.058;8.306;2023-08-06T02:39:39;16.30;99.90
15156;DHT22;7678;50.058;8.306;2023-08-06T02:42:15;16.30;99.90
15156;DHT22;7678;50.058;8.306;2023-08-06T02:44:47;16.30;99.90
15156;DHT22;7678;50.058;8.306;2023-08-06T02:47:18;16.30;99.90
15156;DHT22;7678;50.058;8.306;2023-08-06T02:49:46;16.30;99.90
15156;DHT22;7678;50.058;8.306;2023-08-06T02:52:17;16.20;99.90
15156;DHT22;7678;50.058;8.306;2023-08-06T02:54:46;16.20;99.90
15156;DHT22;7678;50.058;8.306;2023-08-06T02:57:14;16.20;99.90
15156;DHT22;7678;50.058;8.306;2023-08-06T02:59:42;16.20;99.90
15156;DHT22;7678;50.058;8.306;2023-08-06T03:02:11;16.20;99.90
15156;DHT22;7678;50.058;8.306;2023-08-06T03:04:39;16.30;99.90
15156;DHT22;7678;50.058;8.306;2023-08-06T03:07:07;16.20;99.90
15156;DHT22;7678;50.058;8.306;2023-08-06T03:09:36;16.20;99.90
15156;DHT22;7678;50.058;8.306;2023-08-06T03:12:06;16.30;99.90
15156;DHT22;7678;50.058;8.306;2023-08-06T03:14:38;16.20;99.90
15156;DHT22;7678;50.058;8.306;2023-08-06T03:17:06;16.30;99.90
15156;DHT22;7678;50.058;8.306;2023-08-06T03:19:35;16.30;99.90
15156;DHT22;7678;50.058;8.306;2023-08-06T03:22:04;16.30;99.90
15156;DHT22;7678;50.058;8.306;2023-08-06T03:24:33;16.30;99.90
15156;DHT22;7678;50.058;8.306;2023-08-06T03:27:01;16.20;99.90
15156;DHT22;7678;50.058;8.306;2023-08-06T03:29:29;16.20;99.90
15156;DHT22;7678;50.058;8.306;2023-08-06T03:31:57;16.10;99.90
15156;DHT22;7678;50.058;8.306;2023-08-06T03:34:25;16.00;99.90
15156;DHT22;7678;50.058;8.306;2023-08-06T03:36:55;16.10;99.90
15156;DHT22;7678;50.058;8.306;2023-08-06T03:39:23;16.00;99.90
15156;DHT22;7678;50.058;8.306;2023-08-06T03:41:53;16.00;99.90
15156;DHT22;7678;50.058;8.306;2023-08-06T03:44:21;15.90;99.90
15156;DHT22;7678;50.058;8.306;2023-08-06T03:46:49;15.80;99.90
15156;DHT22;7678;50.058;8.306;2023-08-06T03:49:17;15.90;99.90
15156;DHT22;7678;50.058;8.306;2023-08-06T03:51:45;16.00;99.90
15156;DHT22;7678;50.058;8.306;2023-08-06T03:54:17;16.00;99.90
15156;DHT22;7678;50.058;8.306;2023-08-06T03:56:45;16.00;99.90
15156;DHT22;7678;50.058;8.306;2023-08-06T03:59:14;16.00;99.90
15156;DHT22;7678;50.058;8.306;2023-08-06T04:01:42;16.20;99.90
15156;DHT22;7678;50.058;8.306;2023-08-06T04:04:10;16.20;99.90
15156;DHT22;7678;50.058;8.306;2023-08-06T04:06:38;16.20;99.90
15156;DHT22;7678;50.058;8.306;2023-08-06T04:09:06;16.10;99.90
15156;DHT22;7678;50.058;8.306;2023-08-06T04:11:35;16.00;99.90
15156;DHT22;7678;50.058;8.306;2023-08-06T04:14:04;16.10;99.90
15156;DHT22;7678;50.058;8.306;2023-08-06T04:16:32;16.20;99.90
15156;DHT22;7678;50.058;8.306;2023-08-06T04:19:00;16.20;99.90
15156;DHT22;7678;50.058;8.306;2023-08-06T04:21:29;16.00;99.90
15156;DHT22;7678;50.058;8.306;2023-08-06T04:23:58;15.90;99.90
15156;DHT22;7678;50.058;8.306;2023-08-06T04:26:26;16.00;99.90
15156;DHT22;7678;50.058;8.306;2023-08-06T04:28:55;16.00;99.90
15156;DHT22;7678;50.058;8.306;2023-08-06T04:31:23;16.00;99.90
15156;DHT22;7678;50.058;8.306;2023-08-06T04:33:52;15.90;99.90
15156;DHT22;7678;50.058;8.306;2023-08-06T04:36:22;15.80;99.90
15156;DHT22;7678;50.058;8.306;2023-08-06T04:38:53;15.90;99.90
15156;DHT22;7678;50.058;8.306;2023-08-06T04:41:21;15.90;99.90
15156;DHT22;7678;50.058;8.306;2023-08-06T04:43:49;15.80;99.90
15156;DHT22;7678;50.058;8.306;2023-08-06T04:46:18;15.80;99.90
15156;DHT22;7678;50.058;8.306;2023-08-06T04:48:47;15.60;99.90
15156;DHT22;7678;50.058;8.306;2023-08-06T04:51:15;15.80;99.90
15156;DHT22;7678;50.058;8.306;2023-08-06T04:53:43;15.70;99.90
15156;DHT22;7678;50.058;8.306;2023-08-06T04:56:11;15.80;99.90
15156;DHT22;7678;50.058;8.306;2023-08-06T04:58:41;15.80;99.90
15156;DHT22;7678;50.058;8.306;2023-08-06T05:01:09;15.60;99.90
15156;DHT22;7678;50.058;8.306;2023-08-06T05:03:39;15.60;99.90
15156;DHT22;7678;50.058;8.306;2023-08-06T05:06:07;15.50;99.90
15156;DHT22;7678;50.058;8.306;2023-08-06T05:08:35;15.60;99.90
15156;DHT22;7678;50.058;8.306;2023-08-06T05:11:05;15.60;99.90
15156;DHT22;7678;50.058;8.306;2023-08-06T05:13:33;15.50;99.90
15156;DHT22;7678;50.058;8.306;2023-08-06T05:16:01;15.70;99.90
15156;DHT22;7678;50.058;8.306;2023-08-06T05:18:29;15.70;99.90
15156;DHT22;7678;50.058;8.306;2023-08-06T05:20:59;15.80;99.90
15156;DHT22;7678;50.058;8.306;2023-08-06T05:23:27;15.80;99.90
15156;DHT22;7678;50.058;8.306;2023-08-06T05:25:57;15.80;99.90
15156;DHT22;7678;50.058;8.306;2023-08-06T05:28:25;15.80;99.90
15156;DHT22;7678;50.058;8.306;2023-08-06T05:30:53;15.60;99.90
15156;DHT22;7678;50.058;8.306;2023-08-06T05:33:21;15.70;99.90
15156;DHT22;7678;50.058;8.306;2023-08-06T05:35:49;15.70;99.90
15156;DHT22;7678;50.058;8.306;2023-08-06T05:38:19;15.90;99.90
15156;DHT22;7678;50.058;8.306;2023-08-06T05:40:47;15.90;99.90
15156;DHT22;7678;50.058;8.306;2023-08-06T05:43:15;15.90;99.90
15156;DHT22;7678;50.058;8.306;2023-08-06T05:45:49;15.80;99.90
15156;DHT22;7678;50.058;8.306;2023-08-06T05:48:17;15.90;99.90
15156;DHT22;7678;50.058;8.306;2023-08-06T05:50:45;15.80;99.90
15156;DHT22;7678;50.058;8.306;2023-08-06T05:53:13;15.90;99.90
15156;DHT22;7678;50.058;8.306;2023-08-06T05:55:43;15.90;99.90
15156;DHT22;7678;50.058;8.306;2023-08-06T05:58:12;15.90;99.90
15156;DHT22;7678;50.058;8.306;2023-08-06T06:00:40;15.80;99.90
15156;DHT22;7678;50.058;8.306;2023-08-06T06:03:08;15.70;99.90
15156;DHT22;7678;50.058;8.306;2023-08-06T06:05:37;15.60;99.90
15156;DHT22;7678;50.058;8.306;2023-08-06T06:08:06;15.60;99.90
15156;DHT22;7678;50.058;8.306;2023-08-06T06:10:35;15.70;99.90
15156;DHT22;7678;50.058;8.306;2023-08-06T06:13:05;15.60;99.90
15156;DHT22;7678;50.058;8.306;2023-08-06T06:15:36;15.50;99.90
15156;DHT22;7678;50.058;8.306;2023-08-06T06:18:04;15.40;99.90
15156;DHT22;7678;50.058;8.306;2023-08-06T06:20:33;15.50;99.90
15156;DHT22;7678;50.058;8.306;2023-08-06T06:23:03;15.50;99.90
15156;DHT22;7678;50.058;8.306;2023-08-06T06:25:33;15.40;99.90
15156;DHT22;7678;50.058;8.306;2023-08-06T06:28:01;15.40;99.90
15156;DHT22;7678;50.058;8.306;2023-08-06T06:30:31;15.50;99.90
15156;DHT22;7678;50.058;8.306;2023-08-06T06:32:59;15.40;99.90
15156;DHT22;7678;50.058;8.306;2023-08-06T06:35:28;15.40;99.90
15156;DHT22;7678;50.058;8.306;2023-08-06T06:37:56;15.30;99.90
15156;DHT22;7678;50.058;8.306;2023-08-06T06:40:26;15.40;99.90
15156;DHT22;7678;50.058;8.306;2023-08-06T06:42:57;15.50;99.90
15156;DHT22;7678;50.058;8.306;2023-08-06T06:45:25;15.50;99.90
15156;DHT22;7678;50.058;8.306;2023-08-06T06:47:54;15.40;99.90
15156;DHT22;7678;50.058;8.306;2023-08-06T06:50:23;15.40;99.90
15156;DHT22;7678;50.058;8.306;2023-08-06T06:52:51;15.40;99.90
15156;DHT22;7678;50.058;8.306;2023-08-06T06:55:19;15.50;99.90
15156;DHT22;7678;50.058;8.306;2023-08-06T06:57:47;15.50;99.90
15156;DHT22;7678;50.058;8.306;2023-08-06T07:00:15;15.60;99.90
15156;DHT22;7678;50.058;8.306;2023-08-06T07:02:43;15.60;99.90
15156;DHT22;7678;50.058;8.306;2023-08-06T07:05:13;15.40;99.90
15156;DHT22;7678;50.058;8.306;2023-08-06T07:07:41;15.40;99.90
15156;DHT22;7678;50.058;8.306;2023-08-06T07:10:09;15.50;99.90
15156;DHT22;7678;50.058;8.306;2023-08-06T07:12:41;15.40;99.90
15156;DHT22;7678;50.058;8.306;2023-08-06T07:15:10;15.60;99.90
15156;DHT22;7678;50.058;8.306;2023-08-06T07:17:38;15.60;99.90
15156;DHT22;7678;50.058;8.306;2023-08-06T07:20:07;15.40;99.90
15156;DHT22;7678;50.058;8.306;2023-08-06T07:22:37;15.60;99.90
15156;DHT22;7678;50.058;8.306;2023-08-06T07:25:05;15.70;99.90
15156;DHT22;7678;50.058;8.306;2023-08-06T07:27:34;15.60;99.90
15156;DHT22;7678;50.058;8.306;2023-08-06T07:30:02;15.60;99.90
15156;DHT22;7678;50.058;8.306;2023-08-06T07:32:32;15.70;99.90
15156;DHT22;7678;50.058;8.306;2023-08-06T07:35:00;15.70;99.90
15156;DHT22;7678;50.058;8.306;2023-08-06T07:37:30;15.70;99.90
15156;DHT22;7678;50.058;8.306;2023-08-06T07:39:59;15.80;99.90
15156;DHT22;7678;50.058;8.306;2023-08-06T07:42:27;15.90;99.90
15156;DHT22;7678;50.058;8.306;2023-08-06T07:44:58;16.10;99.90
15156;DHT22;7678;50.058;8.306;2023-08-06T07:47:26;16.00;99.90
15156;DHT22;7678;50.058;8.306;2023-08-06T07:49:54;16.20;99.90
15156;DHT22;7678;50.058;8.306;2023-08-06T07:52:23;16.20;99.90
15156;DHT22;7678;50.058;8.306;2023-08-06T07:54:51;16.20;99.90
15156;DHT22;7678;50.058;8.306;2023-08-06T07:57:20;16.20;99.90
15156;DHT22;7678;50.058;8.306;2023-08-06T07:59:48;16.20;99.90
15156;DHT22;7678;50.058;8.306;2023-08-06T08:02:19;16.40;99.90
15156;DHT22;7678;50.058;8.306;2023-08-06T08:04:50;16.30;99.90
15156;DHT22;7678;50.058;8.306;2023-08-06T08:07:19;16.50;99.90
15156;DHT22;7678;50.058;8.306;2023-08-06T08:09:47;16.50;99.90
15156;DHT22;7678;50.058;8.306;2023-08-06T08:12:15;16.60;99.90
15156;DHT22;7678;50.058;8.306;2023-08-06T08:14:45;16.50;99.90
15156;DHT22;7678;50.058;8.306;2023-08-06T08:17:13;16.40;99.90
15156;DHT22;7678;50.058;8.306;2023-08-06T08:19:41;16.70;99.90
15156;DHT22;7678;50.058;8.306;2023-08-06T08:22:09;17.00;99.90
15156;DHT22;7678;50.058;8.306;2023-08-06T08:24:37;17.30;99.90
15156;DHT22;7678;50.058;8.306;2023-08-06T08:27:05;17.10;99.90
15156;DHT22;7678;50.058;8.306;2023-08-06T08:29:33;17.10;99.90
15156;DHT22;7678;50.058;8.306;2023-08-06T08:32:03;17.20;99.90
15156;DHT22;7678;50.058;8.306;2023-08-06T08:34:34;17.40;99.90
15156;DHT22;7678;50.058;8.306;2023-08-06T08:37:02;17.00;99.90
15156;DHT22;7678;50.058;8.306;2023-08-06T08:39:33;17.00;99.90
15156;DHT22;7678;50.058;8.306;2023-08-06T08:42:01;16.70;99.90
15156;DHT22;7678;50.058;8.306;2023-08-06T08:44:31;16.90;99.90
15156;DHT22;7678;50.058;8.306;2023-08-06T08:47:00;17.00;99.90
15156;DHT22;7678;50.058;8.306;2023-08-06T08:49:30;17.10;99.90
15156;DHT22;7678;50.058;8.306;2023-08-06T08:51:59;17.10;99.90
15156;DHT22;7678;50.058;8.306;2023-08-06T08:54:31;17.20;99.90
15156;DHT22;7678;50.058;8.306;2023-08-06T08:57:00;17.50;99.90
15156;DHT22;7678;50.058;8.306;2023-08-06T08:59:29;17.70;99.90
15156;DHT22;7678;50.058;8.306;2023-08-06T09:02:00;17.80;99.90
15156;DHT22;7678;50.058;8.306;2023-08-06T09:04:31;18.00;99.90
15156;DHT22;7678;50.058;8.306;2023-08-06T09:07:02;18.10;99.90
15156;DHT22;7678;50.058;8.306;2023-08-06T09:09:31;18.50;99.90
15156;DHT22;7678;50.058;8.306;2023-08-06T09:12:01;18.40;99.90
15156;DHT22;7678;50.058;8.306;2023-08-06T09:14:35;18.10;99.90
15156;DHT22;7678;50.058;8.306;2023-08-06T09:17:04;18.30;99.90
15156;DHT22;7678;50.058;8.306;2023-08-06T09:19:34;18.60;99.90
15156;DHT22;7678;50.058;8.306;2023-08-06T09:22:02;18.90;99.90
15156;DHT22;7678;50.058;8.306;2023-08-06T09:24:38;18.80;99.90
15156;DHT22;7678;50.058;8.306;2023-08-06T09:27:11;19.00;99.90
15156;DHT22;7678;50.058;8.306;2023-08-06T09:29:41;18.90;99.90
15156;DHT22;7678;50.058;8.306;2023-08-06T09:32:12;18.60;99.90
15156;DHT22;7678;50.058;8.306;2023-08-06T09:34:45;18.70;99.90
15156;DHT22;7678;50.058;8.306;2023-08-06T09:37:13;19.00;99.90
15156;DHT22;7678;50.058;8.306;2023-08-06T09:39:41;18.90;99.90
15156;DHT22;7678;50.058;8.306;2023-08-06T09:42:11;18.70;99.90
15156;DHT22;7678;50.058;8.306;2023-08-06T09:44:47;18.70;99.90
15156;DHT22;7678;50.058;8.306;2023-08-06T09:47:16;18.70;99.90
15156;DHT22;7678;50.058;8.306;2023-08-06T09:49:46;18.80;99.90
15156;DHT22;7678;50.058;8.306;2023-08-06T09:52:14;18.50;99.90
15156;DHT22;7678;50.058;8.306;2023-08-06T09:54:43;18.10;99.90
15156;DHT22;7678;50.058;8.306;2023-08-06T09:57:12;18.10;99.90
15156;DHT22;7678;50.058;8.306;2023-08-06T09:59:42;18.00;99.90
15156;DHT22;7678;50.058;8.306;2023-08-06T10:02:13;17.50;99.90
15156;DHT22;7678;50.058;8.306;2023-08-06T10:04:46;17.60;99.90
15156;DHT22;7678;50.058;8.306;2023-08-06T10:07:21;17.20;99.90
15156;DHT22;7678;50.058;8.306;2023-08-06T10:09:50;17.30;99.90
15156;DHT22;7678;50.058;8.306;2023-08-06T10:12:21;17.40;99.90
15156;DHT22;7678;50.058;8.306;2023-08-06T10:14:53;17.60;99.90
15156;DHT22;7678;50.058;8.306;2023-08-06T10:17:24;17.80;99.90
15156;DHT22;7678;50.058;8.306;2023-08-06T10:20:15;17.90;99.90
15156;DHT22;7678;50.058;8.306;2023-08-06T10:22:46;18.30;99.90
15156;DHT22;7678;50.058;8.306;2023-08-06T10:25:30;18.60;99.90
15156;DHT22;7678;50.058;8.306;2023-08-06T10:27:59;18.70;99.90
15156;DHT22;7678;50.058;8.306;2023-08-06T10:30:29;18.40;99.90
15156;DHT22;7678;50.058;8.306;2023-08-06T10:32:59;18.20;99.90
15156;DHT22;7678;50.058;8.306;2023-08-06T10:35:31;18.30;99.90
15156;DHT22;7678;50.058;8.306;2023-08-06T10:38:03;18.60;99.90
15156;DHT22;7678;50.058;8.306;2023-08-06T10:40:39;19.00;99.90
15156;DHT22;7678;50.058;8.306;2023-08-06T10:43:08;19.40;99.90
15156;DHT22;7678;50.058;8.306;2023-08-06T10:45:52;19.30;99.90
15156;DHT22;7678;50.058;8.306;2023-08-06T10:48:29;19.80;99.90
15156;DHT22;7678;50.058;8.306;2023-08-06T10:51:00;19.90;99.90
15156;DHT22;7678;50.058;8.306;2023-08-06T10:53:29;18.40;99.90
15156;DHT22;7678;50.058;8.306;2023-08-06T10:56:00;17.80;99.90
15156;DHT22;7678;50.058;8.306;2023-08-06T10:58:31;17.60;99.90
15156;DHT22;7678;50.058;8.306;2023-08-06T11:01:00;17.70;99.90
15156;DHT22;7678;50.058;8.306;2023-08-06T11:03:29;17.80;99.90
15156;DHT22;7678;50.058;8.306;2023-08-06T11:05:58;17.90;99.90
15156;DHT22;7678;50.058;8.306;2023-08-06T11:08:27;18.00;99.90
15156;DHT22;7678;50.058;8.306;2023-08-06T11:10:55;18.20;99.90
15156;DHT22;7678;50.058;8.306;2023-08-06T11:13:35;18.30;99.90
15156;DHT22;7678;50.058;8.306;2023-08-06T11:16:03;18.30;99.90
15156;DHT22;7678;50.058;8.306;2023-08-06T11:18:31;17.90;99.90
15156;DHT22;7678;50.058;8.306;2023-08-06T11:21:01;17.30;99.90
15156;DHT22;7678;50.058;8.306;2023-08-06T11:23:30;16.60;99.90
15156;DHT22;7678;50.058;8.306;2023-08-06T11:25:58;16.40;99.90
15156;DHT22;7678;50.058;8.306;2023-08-06T11:28:27;16.30;99.90
15156;DHT22;7678;50.058;8.306;2023-08-06T11:30:55;16.30;99.90
15156;DHT22;7678;50.058;8.306;2023-08-06T11:33:25;16.30;99.90
15156;DHT22;7678;50.058;8.306;2023-08-06T11:35:55;16.10;99.90
15156;DHT22;7678;50.058;8.306;2023-08-06T11:38:26;16.20;99.90
15156;DHT22;7678;50.058;8.306;2023-08-06T11:40:55;16.10;99.90
15156;DHT22;7678;50.058;8.306;2023-08-06T11:43:23;16.20;99.90
15156;DHT22;7678;50.058;8.306;2023-08-06T11:45:51;16.00;99.90
15156;DHT22;7678;50.058;8.306;2023-08-06T11:48:24;16.30;99.90
15156;DHT22;7678;50.058;8.306;2023-08-06T11:50:54;16.30;99.90
15156;DHT22;7678;50.058;8.306;2023-08-06T11:53:29;16.20;99.90
15156;DHT22;7678;50.058;8.306;2023-08-06T11:55:57;16.20;99.90
15156;DHT22;7678;50.058;8.306;2023-08-06T11:58:29;16.40;99.90
15156;DHT22;7678;50.058;8.306;2023-08-06T12:00:58;16.30;99.90
15156;DHT22;7678;50.058;8.306;2023-08-06T12:03:26;16.00;99.90
15156;DHT22;7678;50.058;8.306;2023-08-06T12:05:57;15.80;99.90
15156;DHT22;7678;50.058;8.306;2023-08-06T12:08:26;15.70;99.90
15156;DHT22;7678;50.058;8.306;2023-08-06T12:10:56;15.70;99.90
15156;DHT22;7678;50.058;8.306;2023-08-06T12:13:26;15.80;99.90
15156;DHT22;7678;50.058;8.306;2023-08-06T12:15:55;15.80;99.90
15156;DHT22;7678;50.058;8.306;2023-08-06T12:18:25;15.70;99.90
15156;DHT22;7678;50.058;8.306;2023-08-06T12:20:54;15.80;99.90
15156;DHT22;7678;50.058;8.306;2023-08-06T12:23:22;15.70;99.90
15156;DHT22;7678;50.058;8.306;2023-08-06T12:25:50;15.70;99.90
15156;DHT22;7678;50.058;8.306;2023-08-06T12:28:20;15.70;99.90
15156;DHT22;7678;50.058;8.306;2023-08-06T12:30:50;16.00;99.90
15156;DHT22;7678;50.058;8.306;2023-08-06T12:33:21;16.40;99.90
15156;DHT22;7678;50.058;8.306;2023-08-06T12:35:49;16.30;99.90
15156;DHT22;7678;50.058;8.306;2023-08-06T12:38:20;16.20;99.90
15156;DHT22;7678;50.058;8.306;2023-08-06T12:40:48;16.50;99.90
15156;DHT22;7678;50.058;8.306;2023-08-06T12:43:16;16.30;99.90
15156;DHT22;7678;50.058;8.306;2023-08-06T12:45:48;15.90;99.90
15156;DHT22;7678;50.058;8.306;2023-08-06T12:48:16;15.80;99.90
15156;DHT22;7678;50.058;8.306;2023-08-06T12:50:46;15.80;99.90
15156;DHT22;7678;50.058;8.306;2023-08-06T12:53:16;15.70;99.90
15156;DHT22;7678;50.058;8.306;2023-08-06T12:55:47;15.80;99.90
15156;DHT22;7678;50.058;8.306;2023-08-06T12:58:15;15.80;99.90
15156;DHT22;7678;50.058;8.306;2023-08-06T13:00:44;15.70;99.90
15156;DHT22;7678;50.058;8.306;2023-08-06T13:03:13;15.70;99.90
15156;DHT22;7678;50.058;8.306;2023-08-06T13:05:41;15.60;99.90
15156;DHT22;7678;50.058;8.306;2023-08-06T13:08:10;15.60;99.90
15156;DHT22;7678;50.058;8.306;2023-08-06T13:10:42;15.70;99.90
15156;DHT22;7678;50.058;8.306;2023-08-06T13:13:10;15.80;99.90
15156;DHT22;7678;50.058;8.306;2023-08-06T13:15:38;15.90;99.90
15156;DHT22;7678;50.058;8.306;2023-08-06T13:18:07;15.70;99.90
15156;DHT22;7678;50.058;8.306;2023-08-06T13:20:38;15.80;99.90
15156;DHT22;7678;50.058;8.306;2023-08-06T13:23:06;15.70;99.90
15156;DHT22;7678;50.058;8.306;2023-08-06T13:25:37;15.60;99.90
15156;DHT22;7678;50.058;8.306;2023-08-06T13:28:05;15.50;99.90
15156;DHT22;7678;50.058;8.306;2023-08-06T13:30:36;15.60;99.90
15156;DHT22;7678;50.058;8.306;2023-08-06T13:33:08;15.70;99.90
15156;DHT22;7678;50.058;8.306;2023-08-06T13:35:38;15.80;99.90
15156;DHT22;7678;50.058;8.306;2023-08-06T13:38:07;15.90;99.90
15156;DHT22;7678;50.058;8.306;2023-08-06T13:40:35;15.90;99.90
15156;DHT22;7678;50.058;8.306;2023-08-06T13:43:05;16.10;99.90
15156;DHT22;7678;50.058;8.306;2023-08-06T13:45:33;16.30;99.90
15156;DHT22;7678;50.058;8.306;2023-08-06T13:48:05;16.40;99.90
15156;DHT22;7678;50.058;8.306;2023-08-06T13:50:33;16.80;99.90
15156;DHT22;7678;50.058;8.306;2023-08-06T13:53:13;16.80;99.90
15156;DHT22;7678;50.058;8.306;2023-08-06T13:55:42;16.90;99.90
15156;DHT22;7678;50.058;8.306;2023-08-06T13:58:12;17.00;99.90
15156;DHT22;7678;50.058;8.306;2023-08-06T14:00:43;16.90;99.90
15156;DHT22;7678;50.058;8.306;2023-08-06T14:03:13;16.80;99.90
15156;DHT22;7678;50.058;8.306;2023-08-06T14:05:46;17.00;99.90
15156;DHT22;7678;50.058;8.306;2023-08-06T14:08:22;16.90;99.90
15156;DHT22;7678;50.058;8.306;2023-08-06T14:10:50;17.00;99.90
15156;DHT22;7678;50.058;8.306;2023-08-06T14:13:21;17.00;99.90
15156;DHT22;7678;50.058;8.306;2023-08-06T14:15:49;16.90;99.90
15156;DHT22;7678;50.058;8.306;2023-08-06T14:18:17;16.80;99.90
15156;DHT22;7678;50.058;8.306;2023-08-06T14:20:47;16.90;99.90
15156;DHT22;7678;50.058;8.306;2023-08-06T14:23:17;16.70;99.90
15156;DHT22;7678;50.058;8.306;2023-08-06T14:25:45;16.70;99.90
15156;DHT22;7678;50.058;8.306;2023-08-06T14:28:15;16.70;99.90
15156;DHT22;7678;50.058;8.306;2023-08-06T14:30:45;16.70;99.90
15156;DHT22;7678;50.058;8.306;2023-08-06T14:33:17;16.60;99.90
15156;DHT22;7678;50.058;8.306;2023-08-06T14:35:53;16.70;99.90
15156;DHT22;7678;50.058;8.306;2023-08-06T14:38:23;16.70;99.90
15156;DHT22;7678;50.058;8.306;2023-08-06T14:40:53;16.40;99.90
15156;DHT22;7678;50.058;8.306;2023-08-06T14:43:23;16.20;99.90
15156;DHT22;7678;50.058;8.306;2023-08-06T14:45:54;16.20;99.90
15156;DHT22;7678;50.058;8.306;2023-08-06T14:48:22;16.30;99.90
15156;DHT22;7678;50.058;8.306;2023-08-06T14:50:50;16.20;99.90
15156;DHT22;7678;50.058;8.306;2023-08-06T14:53:23;16.20;99.90
15156;DHT22;7678;50.058;8.306;2023-08-06T14:55:52;16.00;99.90
15156;DHT22;7678;50.058;8.306;2023-08-06T14:58:22;16.10;99.90
15156;DHT22;7678;50.058;8.306;2023-08-06T15:00:52;16.10;99.90
15156;DHT22;7678;50.058;8.306;2023-08-06T15:03:23;16.10;99.90
15156;DHT22;7678;50.058;8.306;2023-08-06T15:05:54;16.20;99.90
15156;DHT22;7678;50.058;8.306;2023-08-06T15:08:24;16.20;99.90
15156;DHT22;7678;50.058;8.306;2023-08-06T15:10:52;16.10;99.90
15156;DHT22;7678;50.058;8.306;2023-08-06T15:13:20;16.10;99.90
15156;DHT22;7678;50.058;8.306;2023-08-06T15:15:49;16.10;99.90
15156;DHT22;7678;50.058;8.306;2023-08-06T15:18:17;16.10;99.90
15156;DHT22;7678;50.058;8.306;2023-08-06T15:20:46;16.10;99.90
15156;DHT22;7678;50.058;8.306;2023-08-06T15:23:16;16.10;99.90
15156;DHT22;7678;50.058;8.306;2023-08-06T15:25:45;16.10;99.90
15156;DHT22;7678;50.058;8.306;2023-08-06T15:28:13;16.10;99.90
15156;DHT22;7678;50.058;8.306;2023-08-06T15:30:49;16.20;99.90
15156;DHT22;7678;50.058;8.306;2023-08-06T15:33:20;16.10;99.90
15156;DHT22;7678;50.058;8.306;2023-08-06T15:35:49;16.00;99.90
15156;DHT22;7678;50.058;8.306;2023-08-06T15:38:17;16.00;99.90
15156;DHT22;7678;50.058;8.306;2023-08-06T15:40:46;16.10;99.90
15156;DHT22;7678;50.058;8.306;2023-08-06T15:43:14;16.10;99.90
15156;DHT22;7678;50.058;8.306;2023-08-06T15:45:45;16.00;99.90
15156;DHT22;7678;50.058;8.306;2023-08-06T15:48:13;16.00;99.90
15156;DHT22;7678;50.058;8.306;2023-08-06T15:50:41;15.90;99.90
15156;DHT22;7678;50.058;8.306;2023-08-06T15:53:12;15.80;99.90
15156;DHT22;7678;50.058;8.306;2023-08-06T15:55:40;15.80;99.90
15156;DHT22;7678;50.058;8.306;2023-08-06T15:58:10;15.90;99.90
15156;DHT22;7678;50.058;8.306;2023-08-06T16:00:38;15.90;99.90